Time;durP1;ratioP1;P1;durP2;ratioP2;P2;SDS_P1;SDS_P2;PMS_P1;PMS_P2;Temp;Humidity;BMP_temperature;BMP_pressure;BME280_temperature;BME280_humidity;BME280_pressure;Samples;Min_cycle;Max_cycle;Signal;HPM_P1;HPM_P2
2021/03/01 00:02:00;;;;;;;;;;;;;;;9.57;61.77;103627.81;5095241;28;19916;-87
2021/03/01 00:04:26;;;;;;;;;;;;;;;9.98;60.32;103628.75;5077281;28;19916;-86
2021/03/01 00:06:52;;;;;;;;;;;;;;;10.50;59.67;103625.06;5077501;28;22063;-86
2021/03/01 00:09:17;;;;;;;;;;;;;;;10.22;60.24;103632.31;5096684;28;19916;-86
2021/03/01 00:11:43;;;;;;;;;;;;;;;10.31;59.22;103631.41;5082635;28;19939;-86
2021/03/01 00:14:08;;;;;;;;;;;;;;;11.56;56.15;103623.66;5089303;28;19938;-85
2021/03/01 00:16:33;;;;;;;;;;;;;;;10.54;59.00;103631.41;5099596;28;19917;-85
2021/03/01 00:18:58;;;;;;;;;;;;;;;10.69;58.97;103625.94;5091916;28;20310;-86
2021/03/01 00:21:24;;;;;;;;;;;;;;;10.17;60.57;103628.72;5115787;28;19935;-85
2021/03/01 00:23:49;;;;;;;;;;;;;;;11.26;57.50;103622.03;5113690;28;19930;-85
2021/03/01 00:26:14;;;;;;;;;;;;;;;11.53;55.86;103627.31;5100782;28;20401;-86
2021/03/01 00:28:41;;;;;;;;;;;;;;;10.42;58.53;103627.81;5076144;28;19943;-85
2021/03/01 00:31:06;;;;;;;;;;;;;;;10.35;59.29;103630.53;5076146;28;19923;-86
2021/03/01 00:33:31;;;;;;;;;;;;;;;10.31;59.74;103632.31;5076121;28;19916;-86
2021/03/01 00:35:56;;;;;;;;;;;;;;;10.30;59.95;103625.09;5076062;28;20280;-86
2021/03/01 00:38:22;;;;;;;;;;;;;;;10.59;58.68;103624.16;5076160;28;19963;-86
2021/03/01 00:40:47;;;;;;;;;;;;;;;10.01;61.19;103634.16;5094120;28;20359;-86
2021/03/01 00:43:12;;;;;;;;;;;;;;;9.89;60.92;103632.34;5094061;28;20448;-86
2021/03/01 00:45:37;;;;;;;;;;;;;;;9.69;61.33;103634.13;5075774;28;20404;-85
2021/03/01 00:48:03;;;;;;;;;;;;;;;8.87;63.10;103629.41;5093864;28;19920;-86
2021/03/01 00:50:28;;;;;;;;;;;;;;;9.85;61.07;103638.63;5093714;28;19922;-86
2021/03/01 00:52:53;;;;;;;;;;;;;;;9.58;61.92;103639.53;5075601;28;19997;-85
2021/03/01 00:55:18;;;;;;;;;;;;;;;10.27;59.47;103646.75;5101659;28;19908;-85
2021/03/01 00:57:44;;;;;;;;;;;;;;;10.11;58.95;103633.25;5090019;28;20502;-85
2021/03/01 01:00:18;;;;;;;;;;;;;;;9.22;62.48;103631.34;5092475;28;19923;-86
2021/03/01 01:02:43;;;;;;;;;;;;;;;9.00;64.13;103634.88;5093623;28;19970;-85
2021/03/01 01:05:09;;;;;;;;;;;;;;;8.38;65.49;103639.91;5092796;28;19920;-86
2021/03/01 01:07:35;;;;;;;;;;;;;;;9.27;62.28;103619.63;5075241;28;19919;-85
2021/03/01 01:10:00;;;;;;;;;;;;;;;8.63;65.05;103626.59;5093709;28;20334;-86
2021/03/01 01:12:25;;;;;;;;;;;;;;;9.49;62.41;103624.19;5075806;28;19916;-86
2021/03/01 01:14:51;;;;;;;;;;;;;;;9.69;61.74;103634.13;5075309;28;19933;-86
2021/03/01 01:17:16;;;;;;;;;;;;;;;9.15;63.30;103636.69;5075242;28;19959;-84
2021/03/01 01:19:42;;;;;;;;;;;;;;;9.56;60.66;103627.81;5093264;28;19947;-85
2021/03/01 01:22:07;;;;;;;;;;;;;;;8.22;65.94;103633.50;5092262;28;20009;-84
2021/03/01 01:24:32;;;;;;;;;;;;;;;8.95;63.69;103628.53;5075232;28;19962;-85
2021/03/01 01:26:57;;;;;;;;;;;;;;;9.03;62.65;103626.78;5092226;28;19916;-85
2021/03/01 01:29:23;;;;;;;;;;;;;;;9.31;61.58;103627.75;5093315;28;19942;-85
2021/03/01 01:31:48;;;;;;;;;;;;;;;9.31;62.40;103629.56;5077729;28;19923;-87
2021/03/01 01:34:13;;;;;;;;;;;;;;;8.72;64.10;103626.63;5097668;28;20352;-85
2021/03/01 01:36:38;;;;;;;;;;;;;;;10.78;57.20;103630.44;5078902;28;19961;-86
2021/03/01 01:39:04;;;;;;;;;;;;;;;9.96;60.16;103630.53;5079005;28;19912;-85
2021/03/01 01:41:29;;;;;;;;;;;;;;;10.76;57.71;103618.69;5078821;28;20122;-85
2021/03/01 01:43:55;;;;;;;;;;;;;;;10.12;58.28;103615.19;5078781;28;20018;-85
2021/03/01 01:46:20;;;;;;;;;;;;;;;9.15;61.43;103621.41;5078456;28;20297;-85
2021/03/01 01:48:45;;;;;;;;;;;;;;;9.47;60.38;103615.19;5078826;28;20296;-86
2021/03/01 01:51:10;;;;;;;;;;;;;;;9.18;61.41;103607.94;5095724;28;19920;-85
2021/03/01 01:53:36;;;;;;;;;;;;;;;8.98;61.41;103613.28;5078836;28;19916;-85
2021/03/01 01:56:01;;;;;;;;;;;;;;;9.92;58.53;103615.22;5078870;28;19916;-85
2021/03/01 01:58:27;;;;;;;;;;;;;;;9.28;60.69;103614.22;5095693;28;19916;-86
2021/03/01 02:00:52;;;;;;;;;;;;;;;9.33;60.43;103600.72;5078563;28;19916;-86
2021/03/01 02:03:29;;;;;;;;;;;;;;;9.78;59.11;103614.31;5078422;28;19917;-85
2021/03/01 02:05:57;;;;;;;;;;;;;;;8.93;61.70;103606.03;5096523;28;19976;-85
2021/03/01 02:08:41;;;;;;;;;;;;;;;9.10;60.99;103606.09;5078252;28;19920;-85
2021/03/01 02:11:06;;;;;;;;;;;;;;;9.20;60.56;103606.13;5078346;28;19924;-85
2021/03/01 02:13:44;;;;;;;;;;;;;;;8.52;63.02;103608.53;5096649;28;19917;-86
2021/03/01 02:16:18;;;;;;;;;;;;;;;8.52;62.81;103603.16;5077963;28;19924;-86
2021/03/01 02:18:45;;;;;;;;;;;;;;;9.58;59.74;103596.28;5096155;28;19924;-85
2021/03/01 02:21:11;;;;;;;;;;;;;;;9.93;58.17;103584.56;5078102;28;19971;-86
2021/03/01 02:23:40;;;;;;;;;;;;;;;10.02;58.69;103576.44;5096393;28;20007;-85
2021/03/01 02:26:16;;;;;;;;;;;;;;;9.06;60.84;103575.50;5078759;28;19970;-85
2021/03/01 02:28:50;;;;;;;;;;;;;;;8.90;61.52;103570.94;5107569;28;19953;-85
2021/03/01 02:31:16;;;;;;;;;;;;;;;9.36;60.73;103574.66;5077939;28;19916;-84
2021/03/01 02:33:52;;;;;;;;;;;;;;;8.98;61.06;103569.16;5095972;28;19969;-86
2021/03/01 02:36:20;;;;;;;;;;;;;;;8.77;62.64;103581.69;5096054;28;19916;-86
2021/03/01 02:38:46;;;;;;;;;;;;;;;8.58;63.58;103588.78;5077949;28;19927;-85
2021/03/01 02:41:12;;;;;;;;;;;;;;;9.73;60.43;103585.47;5095765;28;19917;-86
2021/03/01 02:43:38;;;;;;;;;;;;;;;9.97;58.68;103577.34;5077634;28;20324;-87
2021/03/01 02:46:04;;;;;;;;;;;;;;;9.91;59.38;103581.84;5094831;28;20384;-85
2021/03/01 02:48:31;;;;;;;;;;;;;;;9.71;59.02;103584.56;5077558;28;19928;-86
2021/03/01 02:50:57;;;;;;;;;;;;;;;9.85;58.65;103573.75;5078145;28;19955;-85
2021/03/01 02:53:23;;;;;;;;;;;;;;;9.93;58.43;103580.06;5078314;28;19927;-86
2021/03/01 02:55:48;;;;;;;;;;;;;;;10.59;56.91;103572.72;5096343;28;19971;-86
2021/03/01 02:58:15;;;;;;;;;;;;;;;9.66;59.66;103582.75;5079457;28;20377;-85
2021/03/01 03:00:42;;;;;;;;;;;;;;;9.22;60.49;103577.34;5083652;28;19966;-85
2021/03/01 03:03:09;;;;;;;;;;;;;;;9.49;60.10;103588.16;5118779;28;19916;-84
2021/03/01 03:05:34;;;;;;;;;;;;;;;9.22;60.21;103584.50;5099462;28;19938;-86
2021/03/01 03:08:00;;;;;;;;;;;;;;;9.84;58.60;103582.75;5112570;28;19916;-85
2021/03/01 03:10:26;;;;;;;;;;;;;;;9.68;59.15;103579.16;5100602;28;19901;-85
2021/03/01 03:12:52;;;;;;;;;;;;;;;9.59;59.41;103581.88;5088697;28;19993;-86
2021/03/01 03:15:19;;;;;;;;;;;;;;;9.56;60.16;103582.75;5078331;28;20015;-86
2021/03/01 03:17:45;;;;;;;;;;;;;;;8.76;62.42;103581.69;5095458;28;19932;-86
2021/03/01 03:20:11;;;;;;;;;;;;;;;9.07;61.63;103579.97;5090418;28;19959;-86
2021/03/01 03:22:36;;;;;;;;;;;;;;;9.46;60.24;103575.53;5073634;28;20403;-85
2021/03/01 03:25:05;;;;;;;;;;;;;;;10.02;58.04;103570.13;5073165;28;19916;-86
2021/03/01 03:27:31;;;;;;;;;;;;;;;10.33;57.67;103575.50;5073653;28;19927;-86
2021/03/01 03:29:56;;;;;;;;;;;;;;;8.85;60.88;103581.72;5074622;28;19916;-85
2021/03/01 03:32:21;;;;;;;;;;;;;;;10.51;56.83;103580.88;5074676;28;20007;-86
2021/03/01 03:34:46;;;;;;;;;;;;;;;11.22;54.98;103580.53;5073411;28;20016;-85
2021/03/01 03:37:15;;;;;;;;;;;;;;;10.91;55.75;103577.97;5073537;28;19998;-86
2021/03/01 03:39:46;;;;;;;;;;;;;;;10.92;55.09;103577.09;5073391;28;19927;-86
2021/03/01 03:42:12;;;;;;;;;;;;;;;10.66;55.62;103573.59;5073186;28;19926;-85
2021/03/01 03:44:40;;;;;;;;;;;;;;;9.99;57.88;103576.44;5074367;28;19916;-85
2021/03/01 03:47:06;;;;;;;;;;;;;;;9.99;58.08;103580.94;5074329;28;20270;-85
2021/03/01 03:49:31;;;;;;;;;;;;;;;9.76;58.62;103574.66;5073082;28;19928;-86
2021/03/01 03:51:57;;;;;;;;;;;;;;;11.10;54.64;103567.06;5074380;28;19924;-87
2021/03/01 03:54:25;;;;;;;;;;;;;;;9.93;57.82;103566.53;5072322;28;19926;-86
2021/03/01 03:56:53;;;;;;;;;;;;;;;10.68;56.31;103571.78;5073135;28;20364;-86
2021/03/01 03:59:19;;;;;;;;;;;;;;;10.33;57.05;103572.78;5083061;28;19916;-85
2021/03/01 04:01:47;;;;;;;;;;;;;;;11.17;54.96;103568.81;5077069;28;19921;-86
2021/03/01 04:04:13;;;;;;;;;;;;;;;11.34;54.70;103575.03;5074486;28;19924;-86
2021/03/01 04:06:40;;;;;;;;;;;;;;;9.92;57.83;103578.25;5074075;28;19923;-85
2021/03/01 04:09:06;;;;;;;;;;;;;;;10.57;56.32;103571.84;5072985;28;19928;-85
2021/03/01 04:11:32;;;;;;;;;;;;;;;9.58;58.78;103574.66;5073835;28;19942;-86
2021/03/01 04:13:59;;;;;;;;;;;;;;;9.65;58.86;103575.56;5072592;28;19938;-86
2021/03/01 04:16:24;;;;;;;;;;;;;;;9.48;58.79;103581.88;5072573;28;19955;-85
2021/03/01 04:18:51;;;;;;;;;;;;;;;10.32;56.45;103585.41;5072228;28;19971;-86
2021/03/01 04:21:18;;;;;;;;;;;;;;;9.72;58.38;103577.34;5072733;28;19922;-85
2021/03/01 04:23:45;;;;;;;;;;;;;;;9.75;58.35;103574.66;5072522;28;19923;-85
2021/03/01 04:26:12;;;;;;;;;;;;;;;10.08;57.67;103562.00;5072418;28;20408;-85
2021/03/01 04:28:37;;;;;;;;;;;;;;;9.94;57.92;103570.16;5072524;28;19931;-85
2021/03/01 04:31:04;;;;;;;;;;;;;;;9.19;60.20;103574.63;5072622;28;20015;-85
2021/03/01 04:33:30;;;;;;;;;;;;;;;9.82;58.36;103564.75;5073797;28;19927;-85
2021/03/01 04:35:55;;;;;;;;;;;;;;;10.09;56.86;103571.94;5072212;28;19965;-85
2021/03/01 04:38:21;;;;;;;;;;;;;;;10.11;56.99;103568.31;5072313;28;19917;-85
2021/03/01 04:40:46;;;;;;;;;;;;;;;11.28;53.60;103568.75;5072334;28;19916;-85
2021/03/01 04:43:11;;;;;;;;;;;;;;;11.05;53.75;103566.16;5072333;28;19970;-84
2021/03/01 04:45:38;;;;;;;;;;;;;;;10.27;56.45;103574.59;5072315;28;19917;-85
2021/03/01 04:48:05;;;;;;;;;;;;;;;10.78;54.80;103573.56;5072354;28;19920;-84
2021/03/01 04:50:31;;;;;;;;;;;;;;;10.99;54.15;103572.53;5072163;28;19978;-85
2021/03/01 04:52:56;;;;;;;;;;;;;;;10.36;56.10;103575.50;5072036;28;19917;-85
2021/03/01 04:55:21;;;;;;;;;;;;;;;11.10;53.71;103567.94;5073220;28;20364;-85
2021/03/01 04:57:47;;;;;;;;;;;;;;;10.80;54.87;103572.63;5088835;28;20366;-85
2021/03/01 05:00:13;;;;;;;;;;;;;;;11.13;53.54;103565.22;5071799;28;19927;-85
2021/03/01 05:02:38;;;;;;;;;;;;;;;10.28;56.41;103568.28;5073164;28;20381;-85
2021/03/01 05:05:04;;;;;;;;;;;;;;;11.74;51.90;103562.06;5073995;28;19920;-85
2021/03/01 05:07:30;;;;;;;;;;;;;;;11.76;51.70;103560.22;5078909;28;19920;-85
2021/03/01 05:09:56;;;;;;;;;;;;;;;11.22;53.00;103563.34;5078749;28;19923;-86
2021/03/01 05:12:21;;;;;;;;;;;;;;;11.15;53.50;103567.94;5079876;28;19916;-85
2021/03/01 05:14:46;;;;;;;;;;;;;;;10.71;54.71;103569.97;5078545;28;19916;-86
2021/03/01 05:17:12;;;;;;;;;;;;;;;10.78;53.98;103574.44;5078447;28;20389;-85
2021/03/01 05:19:37;;;;;;;;;;;;;;;10.16;56.29;103565.63;5090642;28;20458;-85
2021/03/01 05:22:03;;;;;;;;;;;;;;;9.61;57.40;103563.84;5081797;28;20326;-85
2021/03/01 05:24:28;;;;;;;;;;;;;;;9.45;57.94;103562.03;5081854;28;20335;-86
2021/03/01 05:26:53;;;;;;;;;;;;;;;10.16;55.66;103557.50;5100317;28;19912;-86
2021/03/01 05:29:18;;;;;;;;;;;;;;;9.94;55.91;103562.03;5083791;28;19976;-86
2021/03/01 05:31:44;;;;;;;;;;;;;;;10.33;55.85;103559.25;5084043;28;19982;-85
2021/03/01 05:34:09;;;;;;;;;;;;;;;10.26;56.26;103555.66;5081608;28;20396;-85
2021/03/01 05:36:35;;;;;;;;;;;;;;;10.08;56.32;103556.59;5082746;28;20419;-86
2021/03/01 05:39:00;;;;;;;;;;;;;;;10.38;55.08;103558.34;5082430;28;19916;-86
2021/03/01 05:41:25;;;;;;;;;;;;;;;10.88;54.09;103555.44;5083921;28;19920;-85
2021/03/01 05:43:51;;;;;;;;;;;;;;;10.37;55.24;103561.06;5103588;28;19916;-85
2021/03/01 05:46:17;;;;;;;;;;;;;;;11.15;53.06;103549.84;5107819;28;19939;-85
2021/03/01 05:48:43;;;;;;;;;;;;;;;10.20;54.95;103552.97;5098292;28;19950;-86
2021/03/01 05:51:09;;;;;;;;;;;;;;;10.53;54.82;103557.41;5101106;28;19900;-86
2021/03/01 05:53:39;;;;;;;;;;;;;;;9.22;58.65;103563.81;5094680;28;20418;-86
2021/03/01 05:56:04;;;;;;;;;;;;;;;10.99;53.69;103559.91;5093713;28;20002;-87
2021/03/01 05:58:30;;;;;;;;;;;;;;;10.01;55.40;103553.00;5095750;28;19941;-86
2021/03/01 06:01:03;;;;;;;;;;;;;;;10.40;54.99;103553.84;5084557;28;19916;-85
2021/03/01 06:03:33;;;;;;;;;;;;;;;10.27;54.49;103557.47;5100939;28;19970;-84
2021/03/01 06:05:58;;;;;;;;;;;;;;;10.33;55.01;103548.44;5081775;28;19998;-85
2021/03/01 06:08:24;;;;;;;;;;;;;;;9.70;56.65;103549.44;5081538;28;20368;-85
2021/03/01 06:10:54;;;;;;;;;;;;;;;11.25;52.70;103542.56;5099672;28;19916;-85
2021/03/01 06:13:19;;;;;;;;;;;;;;;10.75;53.93;103541.97;5081036;28;19970;-86
2021/03/01 06:15:46;;;;;;;;;;;;;;;10.53;54.45;103551.97;5081506;28;20292;-84
2021/03/01 06:18:13;;;;;;;;;;;;;;;10.41;54.77;103546.63;5077542;28;19925;-85
2021/03/01 06:20:40;;;;;;;;;;;;;;;10.22;55.46;103549.34;5096189;28;19972;-85
2021/03/01 06:23:05;;;;;;;;;;;;;;;11.57;52.12;103548.66;5078164;28;19974;-85
2021/03/01 06:25:31;;;;;;;;;;;;;;;10.55;54.65;103554.69;5078311;28;19916;-85
2021/03/01 06:28:03;;;;;;;;;;;;;;;11.86;50.78;103551.09;5077953;28;19961;-85
2021/03/01 06:30:30;;;;;;;;;;;;;;;11.18;52.35;103554.34;5073332;28;19916;-85
2021/03/01 06:33:06;;;;;;;;;;;;;;;10.69;53.77;103551.91;5077943;28;19912;-85
2021/03/01 06:35:32;;;;;;;;;;;;;;;10.20;54.65;103559.25;5077975;28;19920;-85
2021/03/01 06:38:18;;;;;;;;;;;;;;;10.93;53.53;103553.59;5077647;28;20002;-85
2021/03/01 06:40:44;;;;;;;;;;;;;;;10.70;53.90;103553.72;5078035;28;19916;-85
2021/03/01 06:43:11;;;;;;;;;;;;;;;11.12;52.42;103559.81;5077561;28;19923;-86
2021/03/01 06:45:36;;;;;;;;;;;;;;;10.82;53.83;103561.78;5077678;28;19916;-85
2021/03/01 06:48:01;;;;;;;;;;;;;;;11.22;52.67;103564.28;5094979;28;20300;-85
2021/03/01 06:50:31;;;;;;;;;;;;;;;11.23;52.46;103563.38;5097952;28;19916;-85
2021/03/01 06:52:57;;;;;;;;;;;;;;;11.19;52.15;103561.59;5098063;28;19922;-84
2021/03/01 06:55:23;;;;;;;;;;;;;;;9.99;55.33;103572.84;5080054;28;19916;-85
2021/03/01 06:57:48;;;;;;;;;;;;;;;9.08;58.54;103565.56;5110026;28;19916;-85
2021/03/01 07:00:14;;;;;;;;;;;;;;;9.55;57.19;103572.84;5104938;28;19923;-86
2021/03/01 07:02:40;;;;;;;;;;;;;;;9.56;56.80;103562.97;5082343;28;19923;-85
2021/03/01 07:05:05;;;;;;;;;;;;;;;9.89;56.24;103562.03;5098926;28;19923;-85
2021/03/01 07:07:34;;;;;;;;;;;;;;;9.37;57.48;103568.31;5078906;28;19920;-86
2021/03/01 07:10:00;;;;;;;;;;;;;;;9.50;56.86;103563.84;5096542;28;19931;-85
2021/03/01 07:12:41;;;;;;;;;;;;;;;9.88;55.94;103572.84;5095613;28;19916;-85
2021/03/01 07:15:08;;;;;;;;;;;;;;;9.44;57.54;103560.25;5095040;28;19923;-85
2021/03/01 07:17:34;;;;;;;;;;;;;;;10.13;55.81;103565.63;5076766;28;19912;-85
2021/03/01 07:20:00;;;;;;;;;;;;;;;10.58;54.20;103568.19;5096684;28;19919;-86
2021/03/01 07:22:27;;;;;;;;;;;;;;;10.67;54.10;103567.28;5078353;28;20365;-83
2021/03/01 07:24:52;;;;;;;;;;;;;;;10.35;54.95;103576.41;5095157;28;19916;-85
2021/03/01 07:27:19;;;;;;;;;;;;;;;10.26;54.83;103571.88;5076746;28;20384;-86
2021/03/01 07:29:45;;;;;;;;;;;;;;;10.45;54.69;103565.56;5075548;28;19912;-86
2021/03/01 07:32:13;;;;;;;;;;;;;;;11.47;51.68;103567.72;5076295;28;19920;-85
2021/03/01 07:34:39;;;;;;;;;;;;;;;11.94;51.15;103568.25;5076560;28;20095;-85
2021/03/01 07:37:05;;;;;;;;;;;;;;;10.98;53.51;103577.03;5076356;28;20402;-85
2021/03/01 07:39:31;;;;;;;;;;;;;;;10.69;54.02;103574.50;5076529;28;19916;-85
2021/03/01 07:41:57;;;;;;;;;;;;;;;11.87;50.49;103571.91;5076481;28;19960;-86
2021/03/01 07:44:23;;;;;;;;;;;;;;;11.11;52.58;103580.59;5094650;28;20001;-86
2021/03/01 07:46:49;;;;;;;;;;;;;;;9.97;56.00;103586.38;5076179;28;19916;-85
2021/03/01 07:49:34;;;;;;;;;;;;;;;9.43;57.83;103583.66;5076637;28;19931;-85
2021/03/01 07:52:00;;;;;;;;;;;;;;;10.13;56.01;103578.22;5094549;28;20007;-86
2021/03/01 07:54:45;;;;;;;;;;;;;;;10.81;53.92;103579.84;5076493;28;19963;-85
2021/03/01 07:57:10;;;;;;;;;;;;;;;9.81;56.33;103582.75;5075937;28;19924;-85
2021/03/01 07:59:35;;;;;;;;;;;;;;;9.97;55.83;103578.25;5094543;28;19978;-85
2021/03/01 08:02:10;;;;;;;;;;;;;;;10.55;54.85;103581.75;5094178;28;19930;-85
2021/03/01 08:04:35;;;;;;;;;;;;;;;10.52;54.41;103581.75;5076387;28;19916;-85
2021/03/01 08:07:01;;;;;;;;;;;;;;;10.49;54.54;103581.78;5077706;28;19927;-85
2021/03/01 08:09:39;;;;;;;;;;;;;;;10.52;54.67;103588.06;5076249;28;20274;-85
2021/03/01 08:12:04;;;;;;;;;;;;;;;10.65;54.28;103586.22;5075837;28;19916;-85
2021/03/01 08:14:48;;;;;;;;;;;;;;;10.88;53.63;103587.94;5075997;28;20357;-86
2021/03/01 08:17:26;;;;;;;;;;;;;;;11.81;51.23;103583.69;5093784;28;19916;-85
2021/03/01 08:19:55;;;;;;;;;;;;;;;11.34;52.35;103585.88;5075533;28;19928;-85
2021/03/01 08:22:20;;;;;;;;;;;;;;;11.15;52.57;103586.88;5071399;28;19916;-85
2021/03/01 08:24:45;;;;;;;;;;;;;;;11.71;50.87;103587.38;5077659;28;19938;-85
2021/03/01 08:27:26;;;;;;;;;;;;;;;12.09;50.16;103586.16;5094176;28;19931;-86
2021/03/01 08:30:10;;;;;;;;;;;;;;;11.56;51.09;103591.13;5076974;28;19916;-85
2021/03/01 08:32:35;;;;;;;;;;;;;;;10.20;54.53;103597.13;5076540;28;20218;-85
2021/03/01 08:35:30;;;;;;;;;;;;;;;10.55;54.71;103596.22;5080566;28;20204;-84
2021/03/01 08:37:55;;;;;;;;;;;;;;;10.37;54.34;103590.81;5079980;28;19920;-83
2021/03/01 08:40:21;;;;;;;;;;;;;;;10.88;53.76;103596.97;5106643;28;19931;-84
2021/03/01 08:42:53;;;;;;;;;;;;;;;10.68;53.65;103590.75;5097156;28;19904;-84
2021/03/01 08:45:23;;;;;;;;;;;;;;;9.83;55.93;103596.28;5097823;28;19916;-82
2021/03/01 08:47:49;;;;;;;;;;;;;;;9.86;56.58;103601.72;5083910;28;19924;-85
2021/03/01 08:50:19;;;;;;;;;;;;;;;9.65;55.93;103602.59;5076991;28;20034;-85
2021/03/01 08:52:48;;;;;;;;;;;;;;;9.83;55.58;103602.59;5075987;28;19939;-85
2021/03/01 08:55:14;;;;;;;;;;;;;;;9.49;58.19;103607.09;5094476;28;20009;-84
2021/03/01 08:57:56;;;;;;;;;;;;;;;10.33;56.12;103597.13;5076086;28;19916;-84
2021/03/01 09:00:22;;;;;;;;;;;;;;;9.89;55.79;103602.59;5075815;28;19930;-85
2021/03/01 09:02:47;;;;;;;;;;;;;;;9.53;58.15;103606.19;5076121;28;20258;-85
2021/03/01 09:05:16;;;;;;;;;;;;;;;9.79;56.42;103603.50;5076262;28;19923;-85
2021/03/01 09:07:45;;;;;;;;;;;;;;;9.60;56.65;103599.88;5075688;28;20008;-85
2021/03/01 09:10:10;;;;;;;;;;;;;;;10.76;53.75;103597.91;5075396;28;19916;-85
2021/03/01 09:12:36;;;;;;;;;;;;;;;10.74;54.46;103604.25;5093658;28;19923;-85
2021/03/01 09:15:02;;;;;;;;;;;;;;;10.31;55.85;103599.84;5093649;28;19949;-85
2021/03/01 09:17:27;;;;;;;;;;;;;;;10.27;55.50;103598.06;5093322;28;20022;-86
2021/03/01 09:19:54;;;;;;;;;;;;;;;10.51;55.12;103601.59;5075543;28;20440;-85
2021/03/01 09:22:20;;;;;;;;;;;;;;;10.89;53.44;103587.03;5075293;28;19920;-85
2021/03/01 09:24:45;;;;;;;;;;;;;;;11.03;53.48;103579.72;5075429;28;19995;-85
2021/03/01 09:27:10;;;;;;;;;;;;;;;11.43;52.13;103583.97;5075150;28;19927;-86
2021/03/01 09:29:35;;;;;;;;;;;;;;;10.89;53.43;103587.94;5092289;28;19917;-86
2021/03/01 09:32:01;;;;;;;;;;;;;;;9.83;56.09;103591.78;5093212;28;19916;-85
2021/03/01 09:34:27;;;;;;;;;;;;;;;10.41;54.35;103584.50;5075172;28;20347;-85
2021/03/01 09:36:52;;;;;;;;;;;;;;;10.35;54.96;103584.53;5093562;28;19916;-85
2021/03/01 09:39:18;;;;;;;;;;;;;;;10.54;54.23;103588.97;5075070;28;19923;-84
2021/03/01 09:41:44;;;;;;;;;;;;;;;10.17;54.92;103589.03;5074899;28;20327;-84
2021/03/01 09:44:09;;;;;;;;;;;;;;;10.54;54.14;103588.97;5075130;28;20011;-85
2021/03/01 09:46:35;;;;;;;;;;;;;;;10.93;52.63;103597.84;5075119;28;19916;-85
2021/03/01 09:49:02;;;;;;;;;;;;;;;10.94;52.94;103590.63;5074896;28;19924;-86
2021/03/01 09:51:29;;;;;;;;;;;;;;;11.01;52.29;103578.84;5093205;28;19916;-85
2021/03/01 09:53:58;;;;;;;;;;;;;;;12.55;49.13;103576.63;5098306;28;19917;-84
2021/03/01 09:56:37;;;;;;;;;;;;;;;11.27;51.69;103578.69;5090518;28;20320;-84
2021/03/01 09:59:02;;;;;;;;;;;;;;;12.01;49.75;103577.22;5078762;28;20022;-84
2021/03/01 10:01:27;;;;;;;;;;;;;;;10.66;53.56;103576.28;5097043;28;20369;-85
2021/03/01 10:03:52;;;;;;;;;;;;;;;10.92;52.84;103574.38;5096995;28;19916;-85
2021/03/01 10:06:29;;;;;;;;;;;;;;;10.86;53.63;103577.13;5078845;28;19916;-85
2021/03/01 10:09:00;;;;;;;;;;;;;;;12.04;49.61;103567.22;5078565;28;19970;-85
2021/03/01 10:11:25;;;;;;;;;;;;;;;10.69;53.18;103566.38;5078706;28;19920;-86
2021/03/01 10:14:00;;;;;;;;;;;;;;;11.99;50.51;103560.97;5078590;28;19934;-86
2021/03/01 10:16:29;;;;;;;;;;;;;;;11.69;50.04;103570.25;5096432;28;19954;-86
2021/03/01 10:18:55;;;;;;;;;;;;;;;11.49;50.43;103559.56;5077821;28;19971;-86
2021/03/01 10:21:30;;;;;;;;;;;;;;;11.79;50.33;103562.91;5078401;28;19938;-86
2021/03/01 10:24:07;;;;;;;;;;;;;;;11.48;51.12;103564.06;5078126;28;19961;-86
2021/03/01 10:26:32;;;;;;;;;;;;;;;11.75;50.56;103564.75;5078136;28;19923;-85
2021/03/01 10:28:59;;;;;;;;;;;;;;;11.99;50.38;103566.38;5096428;28;19917;-87
2021/03/01 10:31:26;;;;;;;;;;;;;;;11.29;52.21;103566.03;5078449;28;20365;-87
2021/03/01 10:33:59;;;;;;;;;;;;;;;9.40;56.54;103580.94;5078208;28;19916;-87
2021/03/01 10:36:26;;;;;;;;;;;;;;;10.36;54.77;103572.81;5078422;28;19916;-86
2021/03/01 10:38:54;;;;;;;;;;;;;;;9.80;55.39;103575.56;5077953;28;20050;-84
2021/03/01 10:41:20;;;;;;;;;;;;;;;11.48;51.33;103576.75;5078841;28;20327;-85
2021/03/01 10:43:56;;;;;;;;;;;;;;;12.13;50.12;103563.53;5078759;28;19928;-85
2021/03/01 10:46:32;;;;;;;;;;;;;;;11.67;50.18;103566.63;5097556;28;19917;-85
2021/03/01 10:48:58;;;;;;;;;;;;;;;11.59;50.90;103574.81;5095485;28;19963;-86
2021/03/01 10:51:23;;;;;;;;;;;;;;;11.22;51.41;103574.19;5096995;28;19923;-85
2021/03/01 10:53:49;;;;;;;;;;;;;;;10.57;53.37;103577.25;5078878;28;19916;-85
2021/03/01 10:56:14;;;;;;;;;;;;;;;10.43;53.39;103572.78;5078360;28;20297;-85
2021/03/01 10:58:39;;;;;;;;;;;;;;;10.34;53.39;103585.44;5078097;28;20002;-84
2021/03/01 11:01:04;;;;;;;;;;;;;;;10.33;53.44;103581.84;5077719;28;19942;-85
2021/03/01 11:03:30;;;;;;;;;;;;;;;9.98;54.78;103584.53;5077185;28;20003;-85
2021/03/01 11:05:55;;;;;;;;;;;;;;;10.53;53.07;103576.34;5094501;28;19938;-85
2021/03/01 11:08:20;;;;;;;;;;;;;;;10.54;53.12;103580.88;5095923;28;19920;-84
2021/03/01 11:10:45;;;;;;;;;;;;;;;11.59;50.95;103577.53;5077579;28;19916;-86
2021/03/01 11:13:10;;;;;;;;;;;;;;;10.99;51.61;103577.94;5077385;28;19938;-85
2021/03/01 11:15:36;;;;;;;;;;;;;;;11.44;51.01;103572.25;5077289;28;19923;-85
2021/03/01 11:18:01;;;;;;;;;;;;;;;11.92;49.06;103572.75;5078008;28;19924;-84
2021/03/01 11:20:26;;;;;;;;;;;;;;;11.03;51.05;103573.41;5084283;28;19920;-86
2021/03/01 11:22:51;;;;;;;;;;;;;;;12.20;48.70;103567.09;5089994;28;19976;-84
2021/03/01 11:25:17;;;;;;;;;;;;;;;11.92;48.91;103572.75;5094817;28;19924;-85
2021/03/01 11:27:42;;;;;;;;;;;;;;;11.80;49.06;103571.03;5109749;28;19945;-85
2021/03/01 11:30:07;;;;;;;;;;;;;;;10.43;53.20;103572.78;5098664;28;19916;-84
2021/03/01 11:32:33;;;;;;;;;;;;;;;11.09;51.75;103562.53;5092200;28;20011;-84
2021/03/01 11:34:58;;;;;;;;;;;;;;;11.84;49.70;103561.06;5078420;28;19916;-86
2021/03/01 11:37:23;;;;;;;;;;;;;;;13.07;47.10;103550.56;5095029;28;19962;-85
2021/03/01 11:39:49;;;;;;;;;;;;;;;11.72;49.35;103553.06;5076839;28;19923;-85
2021/03/01 11:42:14;;;;;;;;;;;;;;;10.75;51.45;103557.28;5076565;28;20409;-85
2021/03/01 11:44:39;;;;;;;;;;;;;;;12.34;48.15;103548.81;5076112;28;20392;-85
2021/03/01 11:47:04;;;;;;;;;;;;;;;11.20;51.42;103547.09;5076536;28;20392;-85
2021/03/01 11:49:29;;;;;;;;;;;;;;;11.92;49.36;103542.00;5076204;28;20108;-85
2021/03/01 11:51:55;;;;;;;;;;;;;;;12.47;48.56;103527.88;5076127;28;19916;-84
2021/03/01 11:54:20;;;;;;;;;;;;;;;11.94;48.65;103532.97;5076067;28;19920;-85
2021/03/01 11:56:45;;;;;;;;;;;;;;;11.99;48.92;103535.66;5076146;28;19961;-84
2021/03/01 11:59:10;;;;;;;;;;;;;;;12.03;48.72;103530.16;5075890;28;20384;-85
2021/03/01 12:01:36;;;;;;;;;;;;;;;12.16;49.39;103516.47;5076110;28;20273;-86
2021/03/01 12:04:01;;;;;;;;;;;;;;;10.81;51.75;103536.53;5093677;28;20007;-84
2021/03/01 12:06:27;;;;;;;;;;;;;;;12.02;48.89;103519.34;5094681;28;19916;-84
2021/03/01 12:08:52;;;;;;;;;;;;;;;11.62;49.81;103520.56;5094561;28;19917;-86
2021/03/01 12:11:17;;;;;;;;;;;;;;;11.82;49.33;103511.34;5075865;28;19912;-85
2021/03/01 12:13:42;;;;;;;;;;;;;;;11.47;50.09;103526.13;5076063;28;19927;-85
2021/03/01 12:16:08;;;;;;;;;;;;;;;12.80;47.29;103511.13;5075228;28;19923;-86
2021/03/01 12:18:33;;;;;;;;;;;;;;;13.45;46.54;103513.75;5093792;28;20011;-85
2021/03/01 12:20:58;;;;;;;;;;;;;;;13.28;46.67;103508.56;5093937;28;19916;-86
2021/03/01 12:23:23;;;;;;;;;;;;;;;13.17;47.24;103516.03;5075654;28;19916;-86
2021/03/01 12:25:49;;;;;;;;;;;;;;;12.88;47.23;103506.50;5076152;28;19927;-85
2021/03/01 12:28:14;;;;;;;;;;;;;;;12.60;48.14;103496.00;5075546;28;19939;-86
2021/03/01 12:30:39;;;;;;;;;;;;;;;13.24;46.85;103504.09;5075535;28;19971;-85
2021/03/01 12:33:05;;;;;;;;;;;;;;;12.00;49.83;103511.22;5075420;28;19916;-85
2021/03/01 12:35:31;;;;;;;;;;;;;;;12.89;47.56;103503.75;5093569;28;20005;-85
2021/03/01 12:37:56;;;;;;;;;;;;;;;13.47;46.39;103496.50;5092535;28;20315;-85
2021/03/01 12:40:22;;;;;;;;;;;;;;;12.74;48.15;103493.06;5075507;28;20333;-85